createdAt,value
2022-10-06T00:00:16.355Z,1008.55
2022-10-06T00:01:10.352Z,1008.54
2022-10-06T00:02:09.487Z,1008.59
2022-10-06T00:03:09.228Z,1008.56
2022-10-06T00:04:10.241Z,1008.58
2022-10-06T00:05:09.184Z,1008.58
2022-10-06T00:06:10.201Z,1008.67
2022-10-06T00:07:10.182Z,1008.69
2022-10-06T00:08:10.425Z,1008.69
2022-10-06T00:09:09.153Z,1008.72
2022-10-06T00:10:12.165Z,1008.75
2022-10-06T00:11:12.137Z,1008.78
2022-10-06T00:12:09.156Z,1008.83
2022-10-06T00:13:09.136Z,1008.82
2022-10-06T00:14:09.380Z,1008.85
2022-10-06T00:15:10.315Z,1008.86
2022-10-06T00:16:09.135Z,1008.78
2022-10-06T00:17:09.088Z,1008.82
2022-10-06T00:18:09.121Z,1008.86
2022-10-06T00:19:09.294Z,1008.83
2022-10-06T00:20:09.032Z,1008.85
2022-10-06T00:21:12.047Z,1008.84
2022-10-06T00:22:09.008Z,1008.87
2022-10-06T00:23:09.246Z,1008.80
2022-10-06T00:24:09.013Z,1008.82
2022-10-06T00:25:08.988Z,1008.79
2022-10-06T00:26:12.016Z,1008.82
2022-10-06T00:27:09.967Z,1008.75
2022-10-06T00:28:10.051Z,1008.76
2022-10-06T00:29:09.976Z,1008.77
2022-10-06T00:30:09.180Z,1008.76
2022-10-06T00:31:08.971Z,1008.73
2022-10-06T00:32:08.922Z,1008.74
2022-10-06T00:33:09.109Z,1008.78
2022-10-06T00:34:10.169Z,1008.76
2022-10-06T00:35:09.904Z,1008.73
2022-10-06T00:36:08.905Z,1008.69
2022-10-06T00:37:08.846Z,1008.68
2022-10-06T00:38:08.845Z,1008.65
2022-10-06T00:39:11.882Z,1008.67
2022-10-06T00:40:08.853Z,1008.66
2022-10-06T00:41:24.385Z,1008.67
2022-10-06T00:42:08.798Z,1008.68
2022-10-06T00:43:08.793Z,1008.70
2022-10-06T00:44:12.096Z,1008.73
2022-10-06T00:45:08.779Z,1008.71
2022-10-06T00:46:09.044Z,1008.70
2022-10-06T00:47:09.015Z,1008.70
2022-10-06T00:48:08.744Z,1008.74
2022-10-06T00:49:11.754Z,1008.69
2022-10-06T00:50:11.775Z,1008.72
2022-10-06T00:51:08.712Z,1008.80
2022-10-06T00:52:08.966Z,1008.90
2022-10-06T00:53:08.696Z,1008.94
2022-10-06T00:54:08.682Z,1008.94
2022-10-06T00:55:08.939Z,1008.92
2022-10-06T00:56:09.683Z,1008.93
2022-10-06T00:57:09.674Z,1008.97
2022-10-06T00:58:15.869Z,1008.96
2022-10-06T00:59:08.611Z,1009.02
2022-10-06T01:00:08.895Z,1009.06
2022-10-06T01:01:11.958Z,1009.05
2022-10-06T01:02:08.616Z,1009.03
2022-10-06T01:03:09.853Z,1009.10
2022-10-06T01:04:08.587Z,1009.04
2022-10-06T01:05:08.588Z,1009.09
2022-10-06T01:06:08.554Z,1009.08
2022-10-06T01:07:08.590Z,1009.10
2022-10-06T01:08:08.530Z,1009.10
2022-10-06T01:09:08.534Z,1009.12
2022-10-06T01:10:08.532Z,1009.17
2022-10-06T01:11:09.524Z,1009.16
2022-10-06T01:12:08.536Z,1009.16
2022-10-06T01:13:23.888Z,1009.16
2022-10-06T01:14:11.495Z,1009.15
2022-10-06T01:15:08.555Z,1009.15
2022-10-06T01:16:08.533Z,1009.12
2022-10-06T01:17:08.485Z,1009.15
2022-10-06T01:18:08.473Z,1009.14
2022-10-06T01:19:09.418Z,1009.14
2022-10-06T01:20:08.409Z,1009.15
2022-10-06T01:21:08.425Z,1009.20
2022-10-06T01:22:08.687Z,1009.25
2022-10-06T01:23:11.409Z,1009.28
2022-10-06T01:24:09.389Z,1009.34
2022-10-06T01:25:08.380Z,1009.37
2022-10-06T01:26:08.344Z,1009.37
2022-10-06T01:27:08.378Z,1009.38
2022-10-06T01:28:08.643Z,1009.42
2022-10-06T01:29:08.317Z,1009.35
2022-10-06T01:30:08.536Z,1009.43
2022-10-06T01:31:11.432Z,1009.44
2022-10-06T01:32:11.561Z,1009.40
2022-10-06T01:33:08.285Z,1009.41
2022-10-06T01:34:08.267Z,1009.43
2022-10-06T01:35:08.256Z,1009.44
2022-10-06T01:36:09.266Z,1009.42
2022-10-06T01:37:08.250Z,1009.42
2022-10-06T01:38:08.250Z,1009.40
2022-10-06T01:39:08.216Z,1009.43
2022-10-06T01:40:08.220Z,1009.43
2022-10-06T01:41:09.196Z,1009.44
2022-10-06T01:42:11.434Z,1009.45
2022-10-06T01:43:08.439Z,1009.45
2022-10-06T01:44:09.184Z,1009.46
2022-10-06T01:45:08.377Z,1009.50
2022-10-06T01:46:11.223Z,1009.54
2022-10-06T01:47:08.127Z,1009.50
2022-10-06T01:48:08.128Z,1009.55
2022-10-06T01:49:08.150Z,1009.53
2022-10-06T01:50:08.108Z,1009.53
2022-10-06T01:51:08.321Z,1009.55
2022-10-06T01:52:08.084Z,1009.50
2022-10-06T01:53:09.097Z,1009.50
2022-10-06T01:54:08.298Z,1009.51
2022-10-06T01:55:08.060Z,1009.51
2022-10-06T01:56:08.043Z,1009.49
2022-10-06T01:57:11.287Z,1009.52
2022-10-06T01:58:08.499Z,1009.52
2022-10-06T01:59:08.049Z,1009.58
2022-10-06T02:00:09.015Z,1009.59
2022-10-06T02:01:11.157Z,1009.62
2022-10-06T02:02:08.998Z,1009.64
2022-10-06T02:03:11.224Z,1009.65
2022-10-06T02:04:11.251Z,1009.62
2022-10-06T02:05:07.961Z,1009.65
2022-10-06T02:06:08.031Z,1009.66
2022-10-06T02:07:07.959Z,1009.69
2022-10-06T02:08:10.951Z,1009.68
2022-10-06T02:09:08.151Z,1009.72
2022-10-06T02:10:07.908Z,1009.69
2022-10-06T02:11:07.881Z,1009.67
2022-10-06T02:12:10.899Z,1009.73
2022-10-06T02:13:10.946Z,1009.75
2022-10-06T02:14:08.099Z,1009.75
2022-10-06T02:15:07.866Z,1009.76
2022-10-06T02:16:08.017Z,1009.75
2022-10-06T02:17:07.820Z,1009.78
2022-10-06T02:18:08.846Z,1009.72
2022-10-06T02:19:07.801Z,1009.82
2022-10-06T02:20:08.831Z,1009.84
2022-10-06T02:21:08.046Z,1009.86
2022-10-06T02:22:07.790Z,1009.89
2022-10-06T02:23:07.767Z,1009.95
2022-10-06T02:24:09.004Z,1009.95
2022-10-06T02:25:07.767Z,1009.96
2022-10-06T02:26:07.737Z,1009.94
2022-10-06T02:27:07.985Z,1009.99
2022-10-06T02:28:07.989Z,1009.98
2022-10-06T02:29:23.213Z,1010.01
2022-10-06T02:30:08.962Z,1010.02
2022-10-06T02:31:07.774Z,1010.07
2022-10-06T02:32:07.713Z,1010.08
2022-10-06T02:33:07.667Z,1010.07
2022-10-06T02:34:07.663Z,1010.10
2022-10-06T02:35:14.758Z,1010.14
2022-10-06T02:36:08.645Z,1010.14
2022-10-06T02:37:22.984Z,1010.14
2022-10-06T02:38:07.864Z,1010.14
2022-10-06T02:39:07.609Z,1010.18
2022-10-06T02:40:10.636Z,1010.11
2022-10-06T02:41:07.591Z,1010.18
2022-10-06T02:42:07.788Z,1010.22
2022-10-06T02:43:07.579Z,1010.25
2022-10-06T02:44:10.567Z,1010.31
2022-10-06T02:45:07.781Z,1010.30
2022-10-06T02:46:10.817Z,1010.31
2022-10-06T02:47:07.518Z,1010.41
2022-10-06T02:48:07.762Z,1010.38
2022-10-06T02:49:08.757Z,1010.42
2022-10-06T02:50:22.753Z,1010.45
2022-10-06T02:51:10.848Z,1010.46
2022-10-06T02:52:07.593Z,1010.53
2022-10-06T02:53:07.491Z,1010.64
2022-10-06T02:54:07.451Z,1010.59
2022-10-06T02:55:07.430Z,1010.55
2022-10-06T02:56:10.445Z,1010.59
2022-10-06T02:57:07.417Z,1010.62
2022-10-06T02:58:07.670Z,1010.61
2022-10-06T02:59:07.401Z,1010.66
2022-10-06T03:00:10.420Z,1010.61
2022-10-06T03:01:07.380Z,1010.64
2022-10-06T03:02:07.459Z,1010.62
2022-10-06T03:03:07.509Z,1010.66
2022-10-06T03:04:07.648Z,1010.69
2022-10-06T03:05:07.342Z,1010.69
2022-10-06T03:06:10.361Z,1010.72
2022-10-06T03:07:14.693Z,1010.73
2022-10-06T03:08:10.590Z,1010.75
2022-10-06T03:09:07.339Z,1010.79
2022-10-06T03:10:10.552Z,1010.77
2022-10-06T03:11:07.281Z,1010.78
2022-10-06T03:12:08.275Z,1010.86
2022-10-06T03:13:07.274Z,1010.84
2022-10-06T03:14:10.514Z,1010.89
2022-10-06T03:15:07.473Z,1010.91
2022-10-06T03:16:10.322Z,1010.94
2022-10-06T03:17:08.460Z,1010.92
2022-10-06T03:18:08.416Z,1010.94
2022-10-06T03:19:07.211Z,1010.96
2022-10-06T03:20:07.191Z,1011.00
2022-10-06T03:21:08.202Z,1011.04
2022-10-06T03:22:08.405Z,1011.03
2022-10-06T03:23:11.444Z,1011.09
2022-10-06T03:24:08.144Z,1011.13
2022-10-06T03:25:07.189Z,1011.23
2022-10-06T03:26:10.152Z,1011.20
2022-10-06T03:27:07.115Z,1011.22
2022-10-06T03:28:08.155Z,1011.20
2022-10-06T03:29:11.293Z,1011.24
2022-10-06T03:30:07.118Z,1011.24
2022-10-06T03:31:14.298Z,1011.24
2022-10-06T03:32:07.094Z,1011.25
2022-10-06T03:33:07.068Z,1011.32
2022-10-06T03:34:07.036Z,1011.33
2022-10-06T03:35:07.281Z,1011.39
2022-10-06T03:36:07.040Z,1011.38
2022-10-06T03:37:07.009Z,1011.39
2022-10-06T03:38:08.008Z,1011.40
2022-10-06T03:39:06.995Z,1011.42
2022-10-06T03:40:07.198Z,1011.44
2022-10-06T03:41:07.993Z,1011.45
2022-10-06T03:42:06.947Z,1011.48
2022-10-06T03:43:07.949Z,1011.53
2022-10-06T03:44:07.948Z,1011.55
2022-10-06T03:45:06.960Z,1011.55
2022-10-06T03:46:06.961Z,1011.57
2022-10-06T03:47:17.221Z,1011.59
2022-10-06T03:48:07.922Z,1011.60
2022-10-06T03:49:27.904Z,1011.63
2022-10-06T03:50:06.878Z,1011.68
2022-10-06T03:51:06.872Z,1011.73
2022-10-06T03:52:06.886Z,1011.80
2022-10-06T03:53:08.081Z,1011.81
2022-10-06T03:54:08.095Z,1011.81
2022-10-06T03:55:07.857Z,1011.82
2022-10-06T03:56:06.818Z,1011.82
2022-10-06T03:57:06.846Z,1011.85
2022-10-06T03:58:06.802Z,1011.86
2022-10-06T03:59:09.796Z,1011.88
2022-10-06T04:00:14.010Z,1011.87
2022-10-06T04:01:06.852Z,1011.84
2022-10-06T04:02:06.837Z,1011.83
2022-10-06T04:03:09.770Z,1011.86
2022-10-06T04:04:06.755Z,1011.86
2022-10-06T04:05:13.769Z,1011.90
2022-10-06T04:06:13.935Z,1011.90
2022-10-06T04:07:06.753Z,1011.97
2022-10-06T04:08:06.929Z,1011.96
2022-10-06T04:09:12.569Z,1012.01
2022-10-06T04:10:10.762Z,1012.10
2022-10-06T04:11:06.882Z,1012.11
2022-10-06T04:12:06.655Z,1012.14
2022-10-06T04:13:06.884Z,1012.16
2022-10-06T04:14:06.884Z,1012.16
2022-10-06T04:15:06.851Z,1012.16
2022-10-06T04:16:13.830Z,1012.21
2022-10-06T04:17:06.623Z,1012.22
2022-10-06T04:18:07.594Z,1012.24
2022-10-06T04:19:07.604Z,1012.27
2022-10-06T04:20:07.560Z,1012.25
2022-10-06T04:21:09.582Z,1012.27
2022-10-06T04:22:06.563Z,1012.23
2022-10-06T04:23:06.794Z,1012.28
2022-10-06T04:24:09.562Z,1012.27
2022-10-06T04:25:09.566Z,1012.32
2022-10-06T04:26:06.752Z,1012.36
2022-10-06T04:27:06.520Z,1012.32
2022-10-06T04:28:06.534Z,1012.33
2022-10-06T04:29:13.770Z,1012.34
2022-10-06T04:30:07.479Z,1012.34
2022-10-06T04:31:13.842Z,1012.35
2022-10-06T04:32:06.679Z,1012.34
2022-10-06T04:33:06.448Z,1012.35
2022-10-06T04:34:06.674Z,1012.37
2022-10-06T04:35:06.401Z,1012.41
2022-10-06T04:36:21.826Z,1012.43
2022-10-06T04:37:09.645Z,1012.46
2022-10-06T04:38:06.404Z,1012.47
2022-10-06T04:39:06.380Z,1012.44
2022-10-06T04:40:06.392Z,1012.45
2022-10-06T04:41:09.412Z,1012.44
2022-10-06T04:42:13.797Z,1012.44
2022-10-06T04:43:06.415Z,1012.48
2022-10-06T04:44:06.350Z,1012.47
2022-10-06T04:45:06.548Z,1012.47
2022-10-06T04:46:24.321Z,1012.49
2022-10-06T04:47:07.525Z,1012.53
2022-10-06T04:48:08.969Z,1012.55
2022-10-06T04:49:21.826Z,1012.55
2022-10-06T04:50:06.479Z,1012.54
2022-10-06T04:51:06.249Z,1012.55
2022-10-06T04:52:13.368Z,1012.58
2022-10-06T04:53:06.483Z,1012.57
2022-10-06T04:54:06.230Z,1012.60
2022-10-06T04:55:06.220Z,1012.63
2022-10-06T04:56:13.740Z,1012.66
2022-10-06T04:57:06.190Z,1012.66
2022-10-06T04:58:06.176Z,1012.71
2022-10-06T04:59:06.246Z,1012.73
2022-10-06T05:00:11.127Z,1012.74
2022-10-06T05:01:07.164Z,1012.72
2022-10-06T05:02:06.202Z,1012.70
2022-10-06T05:03:06.357Z,1012.73
2022-10-06T05:04:06.220Z,1012.71
2022-10-06T05:05:27.164Z,1012.75
2022-10-06T05:06:06.091Z,1012.76
2022-10-06T05:07:06.154Z,1012.80
2022-10-06T05:08:06.288Z,1012.77
2022-10-06T05:09:07.097Z,1012.80
2022-10-06T05:10:06.061Z,1012.85
2022-10-06T05:11:06.102Z,1012.92
2022-10-06T05:12:06.251Z,1012.95
2022-10-06T05:13:06.027Z,1012.94
2022-10-06T05:14:09.303Z,1012.96
2022-10-06T05:15:06.269Z,1012.91
2022-10-06T05:16:09.364Z,1012.94
2022-10-06T05:17:05.993Z,1012.94
2022-10-06T05:18:05.985Z,1012.93
2022-10-06T05:19:06.997Z,1012.92
2022-10-06T05:20:06.189Z,1012.97
2022-10-06T05:21:06.837Z,1012.93
2022-10-06T05:22:05.931Z,1012.97
2022-10-06T05:23:13.206Z,1012.95
2022-10-06T05:24:13.104Z,1012.96
2022-10-06T05:25:05.974Z,1012.92
2022-10-06T05:26:13.178Z,1012.93
2022-10-06T05:27:06.891Z,1012.92
2022-10-06T05:28:34.455Z,1012.98
2022-10-06T05:29:05.890Z,1013.01
2022-10-06T05:30:06.876Z,1013.00
2022-10-06T05:31:06.335Z,1013.02
2022-10-06T05:32:08.921Z,1013.03
2022-10-06T05:33:06.839Z,1013.10
2022-10-06T05:34:06.029Z,1013.09
2022-10-06T05:35:06.811Z,1013.13
2022-10-06T05:36:05.820Z,1013.12
2022-10-06T05:37:06.015Z,1013.16
2022-10-06T05:38:06.008Z,1013.18
2022-10-06T05:39:05.749Z,1013.18
2022-10-06T05:40:08.799Z,1013.18
2022-10-06T05:41:05.726Z,1013.21
2022-10-06T05:42:05.744Z,1013.25
2022-10-06T05:43:06.752Z,1013.26
2022-10-06T05:44:08.716Z,1013.27
2022-10-06T05:45:05.937Z,1013.31
2022-10-06T05:46:12.840Z,1013.35
2022-10-06T05:47:05.924Z,1013.35
2022-10-06T05:48:06.698Z,1013.36
2022-10-06T05:49:06.679Z,1013.34
2022-10-06T05:50:05.650Z,1013.36
2022-10-06T05:51:08.652Z,1013.35
2022-10-06T05:52:06.048Z,1013.38
2022-10-06T05:53:05.850Z,1013.41
2022-10-06T05:54:05.610Z,1013.42
2022-10-06T05:55:05.606Z,1013.46
2022-10-06T05:56:06.827Z,1013.45
2022-10-06T05:57:05.596Z,1013.50
2022-10-06T05:58:05.562Z,1013.58
2022-10-06T05:59:05.585Z,1013.60
2022-10-06T06:00:05.550Z,1013.65
2022-10-06T06:01:05.525Z,1013.71
2022-10-06T06:02:05.662Z,1013.75
2022-10-06T06:03:06.576Z,1013.77
2022-10-06T06:04:05.729Z,1013.80
2022-10-06T06:05:05.497Z,1013.81
2022-10-06T06:06:08.528Z,1013.84
2022-10-06T06:07:05.491Z,1013.86
2022-10-06T06:08:05.675Z,1013.91
2022-10-06T06:09:12.641Z,1013.89
2022-10-06T06:10:12.558Z,1013.90
2022-10-06T06:11:05.441Z,1013.89
2022-10-06T06:12:05.413Z,1013.94
2022-10-06T06:13:05.435Z,1013.92
2022-10-06T06:14:06.661Z,1013.89
2022-10-06T06:15:06.417Z,1013.90
2022-10-06T06:16:20.922Z,1013.96
2022-10-06T06:17:05.625Z,1013.98
2022-10-06T06:18:06.381Z,1013.98
2022-10-06T06:19:08.404Z,1014.05
2022-10-06T06:20:05.581Z,1014.06
2022-10-06T06:21:05.325Z,1014.05
2022-10-06T06:22:05.343Z,1014.05
2022-10-06T06:23:05.530Z,1014.10
2022-10-06T06:24:06.332Z,1014.14
2022-10-06T06:25:05.287Z,1014.16
2022-10-06T06:26:05.284Z,1014.18
2022-10-06T06:27:05.281Z,1014.23
2022-10-06T06:28:06.525Z,1014.23
2022-10-06T06:29:20.696Z,1014.25
2022-10-06T06:30:05.454Z,1014.28
2022-10-06T06:31:06.285Z,1014.31
2022-10-06T06:32:05.467Z,1014.39
2022-10-06T06:33:05.444Z,1014.42
2022-10-06T06:34:05.202Z,1014.49
2022-10-06T06:35:12.433Z,1014.57
2022-10-06T06:36:12.331Z,1014.60
2022-10-06T06:37:08.490Z,1014.60
2022-10-06T06:38:06.392Z,1014.65
2022-10-06T06:39:05.160Z,1014.69
2022-10-06T06:40:05.129Z,1014.68
2022-10-06T06:41:05.354Z,1014.72
2022-10-06T06:42:05.344Z,1014.72
2022-10-06T06:43:05.123Z,1014.75
2022-10-06T06:44:08.117Z,1014.75
2022-10-06T06:45:05.325Z,1014.74
2022-10-06T06:46:05.126Z,1014.74
2022-10-06T06:47:06.081Z,1014.74
2022-10-06T06:48:05.303Z,1014.71
2022-10-06T06:49:05.303Z,1014.72
2022-10-06T06:50:05.018Z,1014.75
2022-10-06T06:51:05.261Z,1014.79
2022-10-06T06:52:05.237Z,1014.79
2022-10-06T06:53:05.245Z,1014.77
2022-10-06T06:54:08.018Z,1014.80
2022-10-06T06:55:12.272Z,1014.84
2022-10-06T06:56:12.196Z,1014.88
2022-10-06T06:57:05.220Z,1014.89
2022-10-06T06:58:05.169Z,1014.95
2022-10-06T06:59:04.997Z,1014.96
2022-10-06T07:00:04.919Z,1014.97
2022-10-06T07:01:04.993Z,1015.03
2022-10-06T07:02:04.946Z,1015.07
2022-10-06T07:03:04.897Z,1015.07
2022-10-06T07:04:04.913Z,1015.07
2022-10-06T07:05:04.884Z,1015.10
2022-10-06T07:06:04.858Z,1015.13
2022-10-06T07:07:05.089Z,1015.11
2022-10-06T07:08:05.859Z,1015.15
2022-10-06T07:09:04.859Z,1015.14
2022-10-06T07:10:07.860Z,1015.12
2022-10-06T07:11:05.843Z,1015.16
2022-10-06T07:12:04.800Z,1015.17
2022-10-06T07:13:07.822Z,1015.26
2022-10-06T07:14:05.801Z,1015.23
2022-10-06T07:15:04.788Z,1015.23
2022-10-06T07:16:04.783Z,1015.24
2022-10-06T07:17:04.753Z,1015.16
2022-10-06T07:18:04.748Z,1015.17
2022-10-06T07:19:04.982Z,1015.23
2022-10-06T07:20:04.959Z,1015.25
2022-10-06T07:21:05.745Z,1015.22
2022-10-06T07:22:04.689Z,1015.30
2022-10-06T07:23:04.697Z,1015.32
2022-10-06T07:24:04.680Z,1015.24
2022-10-06T07:25:04.676Z,1015.37
2022-10-06T07:26:04.675Z,1015.39
2022-10-06T07:27:04.661Z,1015.37
2022-10-06T07:28:19.947Z,1015.43
2022-10-06T07:29:07.672Z,1015.45
2022-10-06T07:30:04.614Z,1015.49
2022-10-06T07:31:04.679Z,1015.51
2022-10-06T07:32:07.622Z,1015.53
2022-10-06T07:33:05.618Z,1015.53
2022-10-06T07:34:11.642Z,1015.48
2022-10-06T07:35:04.563Z,1015.57
2022-10-06T07:36:04.576Z,1015.56
2022-10-06T07:37:06.567Z,1015.62
2022-10-06T07:38:05.549Z,1015.69
2022-10-06T07:39:04.556Z,1015.69
2022-10-06T07:40:04.734Z,1015.71
2022-10-06T07:41:19.048Z,1015.71
2022-10-06T07:42:21.093Z,1015.72
2022-10-06T07:43:07.748Z,1015.69
2022-10-06T07:44:07.843Z,1015.73
2022-10-06T07:45:05.519Z,1015.72
2022-10-06T07:46:04.886Z,1015.69
2022-10-06T07:47:04.449Z,1015.78
2022-10-06T07:48:05.457Z,1015.77
2022-10-06T07:49:04.450Z,1015.83
2022-10-06T07:50:04.417Z,1015.83
2022-10-06T07:51:04.425Z,1015.81
2022-10-06T07:52:04.385Z,1015.80
2022-10-06T07:53:11.605Z,1015.87
2022-10-06T07:54:11.507Z,1015.86
2022-10-06T07:55:07.557Z,1015.84
2022-10-06T07:56:04.355Z,1015.87
2022-10-06T07:57:04.391Z,1015.88
2022-10-06T07:58:11.633Z,1015.86
2022-10-06T07:59:04.325Z,1015.87
2022-10-06T08:00:04.306Z,1015.87
2022-10-06T08:01:04.298Z,1015.88
2022-10-06T08:02:04.354Z,1015.89
2022-10-06T08:03:04.345Z,1015.93
2022-10-06T08:04:04.257Z,1015.88
2022-10-06T08:05:04.274Z,1015.89
2022-10-06T08:06:04.249Z,1015.87
2022-10-06T08:07:05.699Z,1015.87
2022-10-06T08:08:04.237Z,1015.90
2022-10-06T08:09:04.214Z,1015.94
2022-10-06T08:10:04.209Z,1015.96
2022-10-06T08:11:04.512Z,1015.97
2022-10-06T08:12:04.191Z,1015.98
2022-10-06T08:13:04.198Z,1015.98
2022-10-06T08:14:04.176Z,1016.00
2022-10-06T08:15:07.249Z,1015.96
2022-10-06T08:16:04.172Z,1015.99
2022-10-06T08:17:04.152Z,1016.02
2022-10-06T08:18:12.247Z,1016.06
2022-10-06T08:19:12.670Z,1016.06
2022-10-06T08:20:04.103Z,1016.07
2022-10-06T08:21:04.353Z,1016.07
2022-10-06T08:22:05.015Z,1016.09
2022-10-06T08:23:04.099Z,1016.09
2022-10-06T08:24:04.081Z,1016.11
2022-10-06T08:25:06.627Z,1016.17
2022-10-06T08:26:04.266Z,1016.16
2022-10-06T08:27:04.042Z,1016.18
2022-10-06T08:28:04.053Z,1016.20
2022-10-06T08:29:04.046Z,1016.20
2022-10-06T08:30:05.035Z,1016.19
2022-10-06T08:31:04.065Z,1016.26
2022-10-06T08:32:03.980Z,1016.26
2022-10-06T08:33:03.973Z,1016.25
2022-10-06T08:34:07.600Z,1016.27
2022-10-06T08:35:04.966Z,1016.27
2022-10-06T08:36:03.948Z,1016.27
2022-10-06T08:37:19.279Z,1016.30
2022-10-06T08:38:04.914Z,1016.30
2022-10-06T08:39:03.923Z,1016.27
2022-10-06T08:40:03.934Z,1016.28
2022-10-06T08:41:03.895Z,1016.31
2022-10-06T08:42:03.938Z,1016.29
2022-10-06T08:43:03.855Z,1016.37
2022-10-06T08:44:03.884Z,1016.37
2022-10-06T08:45:03.888Z,1016.40
2022-10-06T08:46:03.838Z,1016.40
2022-10-06T08:47:03.839Z,1016.41
2022-10-06T08:48:03.834Z,1016.43
2022-10-06T08:49:03.853Z,1016.40
2022-10-06T08:50:03.785Z,1016.44
2022-10-06T08:51:03.820Z,1016.45
2022-10-06T08:52:03.792Z,1016.43
2022-10-06T08:53:03.771Z,1016.40
2022-10-06T08:54:03.772Z,1016.47
2022-10-06T08:55:03.736Z,1016.42
2022-10-06T08:56:03.781Z,1016.42
2022-10-06T08:57:03.735Z,1016.39
2022-10-06T08:58:03.762Z,1016.39
2022-10-06T08:59:03.710Z,1016.47
2022-10-06T09:00:03.692Z,1016.44
2022-10-06T09:01:03.782Z,1016.46
2022-10-06T09:02:03.794Z,1016.50
2022-10-06T09:03:03.673Z,1016.47
2022-10-06T09:04:03.651Z,1016.49
2022-10-06T09:05:03.778Z,1016.49
2022-10-06T09:06:03.670Z,1016.50
2022-10-06T09:07:05.507Z,1016.51
2022-10-06T09:08:03.625Z,1016.51
2022-10-06T09:09:03.700Z,1016.45
2022-10-06T09:10:03.603Z,1016.55
2022-10-06T09:11:03.591Z,1016.56
2022-10-06T09:12:03.721Z,1016.56
2022-10-06T09:13:03.565Z,1016.59
2022-10-06T09:14:03.575Z,1016.63
2022-10-06T09:15:03.542Z,1016.60
2022-10-06T09:16:03.575Z,1016.59
2022-10-06T09:17:03.548Z,1016.62
2022-10-06T09:18:03.525Z,1016.67
2022-10-06T09:19:08.544Z,1016.65
2022-10-06T09:20:04.517Z,1016.58
2022-10-06T09:21:03.497Z,1016.60
2022-10-06T09:22:03.545Z,1016.64
2022-10-06T09:23:03.457Z,1016.57
2022-10-06T09:24:03.470Z,1016.59
2022-10-06T09:25:03.460Z,1016.70
2022-10-06T09:26:03.490Z,1016.64
2022-10-06T09:27:03.413Z,1016.65
2022-10-06T09:28:03.557Z,1016.62
2022-10-06T09:29:03.406Z,1016.57
2022-10-06T09:30:03.448Z,1016.64
2022-10-06T09:31:03.440Z,1016.64
2022-10-06T09:32:03.367Z,1016.70
2022-10-06T09:33:03.369Z,1016.71
2022-10-06T09:34:03.362Z,1016.67
2022-10-06T09:35:03.346Z,1016.76
2022-10-06T09:36:03.345Z,1016.69
2022-10-06T09:37:03.352Z,1016.78
2022-10-06T09:38:07.869Z,1016.77
2022-10-06T09:39:04.298Z,1016.78
2022-10-06T09:40:03.312Z,1016.80
2022-10-06T09:41:03.283Z,1016.75
2022-10-06T09:42:03.291Z,1016.75
2022-10-06T09:43:03.244Z,1016.73
2022-10-06T09:44:03.261Z,1016.75
2022-10-06T09:45:03.266Z,1016.73
2022-10-06T09:46:03.262Z,1016.74
2022-10-06T09:47:03.234Z,1016.75
2022-10-06T09:48:03.238Z,1016.77
2022-10-06T09:49:03.237Z,1016.81
2022-10-06T09:50:03.227Z,1016.79
2022-10-06T09:51:03.181Z,1016.75
2022-10-06T09:52:03.151Z,1016.74
2022-10-06T09:53:03.159Z,1016.73
2022-10-06T09:54:03.150Z,1016.76
2022-10-06T09:55:03.131Z,1016.74
2022-10-06T09:56:03.147Z,1016.75
2022-10-06T09:57:03.112Z,1016.73
2022-10-06T09:58:03.097Z,1016.73
2022-10-06T09:59:03.107Z,1016.74
2022-10-06T10:00:03.094Z,1016.76
2022-10-06T10:01:03.155Z,1016.78
2022-10-06T10:02:03.079Z,1016.76
2022-10-06T10:03:03.096Z,1016.76
2022-10-06T10:04:19.334Z,1016.72
2022-10-06T10:05:04.023Z,1016.77
2022-10-06T10:06:03.013Z,1016.75
2022-10-06T10:07:03.085Z,1016.75
2022-10-06T10:08:03.015Z,1016.73
2022-10-06T10:09:03.005Z,1016.76
2022-10-06T10:10:02.965Z,1016.73
2022-10-06T10:11:03.008Z,1016.68
2022-10-06T10:12:02.984Z,1016.76
2022-10-06T10:13:02.943Z,1016.77
2022-10-06T10:14:02.946Z,1016.77
2022-10-06T10:15:02.939Z,1016.73
2022-10-06T10:16:03.008Z,1016.75
2022-10-06T10:17:02.933Z,1016.76
2022-10-06T10:18:02.887Z,1016.79
2022-10-06T10:19:02.909Z,1016.78
2022-10-06T10:20:02.882Z,1016.76
2022-10-06T10:21:02.860Z,1016.81
2022-10-06T10:22:02.845Z,1016.80
2022-10-06T10:23:02.879Z,1016.85
2022-10-06T10:24:02.820Z,1016.82
2022-10-06T10:25:02.820Z,1016.84
2022-10-06T10:26:02.819Z,1016.82
2022-10-06T10:27:02.802Z,1016.83
2022-10-06T10:28:02.904Z,1016.78
2022-10-06T10:29:02.780Z,1016.77
2022-10-06T10:30:02.780Z,1016.73
2022-10-06T10:31:02.786Z,1016.72
2022-10-06T10:32:02.782Z,1016.76
2022-10-06T10:33:02.755Z,1016.71
2022-10-06T10:34:13.058Z,1016.75
2022-10-06T10:35:03.712Z,1016.70
2022-10-06T10:36:02.725Z,1016.77
2022-10-06T10:37:02.712Z,1016.74
2022-10-06T10:38:02.711Z,1016.76
2022-10-06T10:39:02.677Z,1016.69
2022-10-06T10:40:02.683Z,1016.67
2022-10-06T10:41:02.666Z,1016.73
2022-10-06T10:42:02.664Z,1016.76
2022-10-06T10:43:02.651Z,1016.76
2022-10-06T10:44:04.225Z,1016.79
2022-10-06T10:45:02.694Z,1016.77
2022-10-06T10:46:02.854Z,1016.81
2022-10-06T10:47:02.638Z,1016.78
2022-10-06T10:48:02.587Z,1016.78
2022-10-06T10:49:05.618Z,1016.75
2022-10-06T10:50:02.797Z,1016.77
2022-10-06T10:51:02.801Z,1016.77
2022-10-06T10:52:05.845Z,1016.78
2022-10-06T10:53:03.561Z,1016.75
2022-10-06T10:54:03.544Z,1016.76
2022-10-06T10:55:03.812Z,1016.75
2022-10-06T10:56:02.529Z,1016.79
2022-10-06T10:57:05.741Z,1016.82
2022-10-06T10:58:02.483Z,1016.79
2022-10-06T10:59:02.731Z,1016.77
2022-10-06T11:00:02.688Z,1016.78
2022-10-06T11:01:02.941Z,1016.78
2022-10-06T11:02:03.489Z,1016.73
2022-10-06T11:03:05.444Z,1016.80
2022-10-06T11:04:03.448Z,1016.79
2022-10-06T11:05:02.440Z,1016.81
2022-10-06T11:06:02.434Z,1016.75
2022-10-06T11:07:02.599Z,1016.75
2022-10-06T11:08:17.950Z,1016.76
2022-10-06T11:09:02.606Z,1016.79
2022-10-06T11:10:05.406Z,1016.80
2022-10-06T11:11:02.357Z,1016.81
2022-10-06T11:12:02.353Z,1016.85
2022-10-06T11:13:09.545Z,1016.82
2022-10-06T11:14:02.585Z,1016.84
2022-10-06T11:15:02.672Z,1016.85
2022-10-06T11:16:05.388Z,1016.81
2022-10-06T11:17:03.534Z,1016.82
2022-10-06T11:18:02.559Z,1016.84
2022-10-06T11:19:02.522Z,1016.84
2022-10-06T11:20:02.480Z,1016.78
2022-10-06T11:21:02.249Z,1016.85
2022-10-06T11:22:02.261Z,1016.86
2022-10-06T11:23:03.478Z,1016.85
2022-10-06T11:24:02.244Z,1016.86
2022-10-06T11:25:02.944Z,1016.90
2022-10-06T11:26:02.464Z,1016.83
2022-10-06T11:27:02.431Z,1016.83
2022-10-06T11:28:09.683Z,1016.84
2022-10-06T11:29:05.211Z,1016.82
2022-10-06T11:30:02.551Z,1016.80
2022-10-06T11:31:03.245Z,1016.80
2022-10-06T11:32:02.424Z,1016.79
2022-10-06T11:33:02.118Z,1016.76
2022-10-06T11:34:02.108Z,1016.81
2022-10-06T11:35:02.367Z,1016.80
2022-10-06T11:36:02.363Z,1016.79
2022-10-06T11:37:02.084Z,1016.80
2022-10-06T11:38:02.069Z,1016.79
2022-10-06T11:39:02.298Z,1016.72
2022-10-06T11:40:02.405Z,1016.69
2022-10-06T11:41:05.069Z,1016.69
2022-10-06T11:42:03.024Z,1016.65
2022-10-06T11:43:02.019Z,1016.68
2022-10-06T11:44:02.247Z,1016.69
2022-10-06T11:45:02.600Z,1016.63
2022-10-06T11:46:02.079Z,1016.67
2022-10-06T11:47:02.060Z,1016.65
2022-10-06T11:48:01.977Z,1016.66
2022-10-06T11:49:01.945Z,1016.60
2022-10-06T11:50:01.992Z,1016.60
2022-10-06T11:51:01.935Z,1016.60
2022-10-06T11:52:04.603Z,1016.61
2022-10-06T11:53:02.913Z,1016.60
2022-10-06T11:54:01.923Z,1016.59
2022-10-06T11:55:02.120Z,1016.56
2022-10-06T11:56:01.932Z,1016.58
2022-10-06T11:57:01.864Z,1016.61
2022-10-06T11:58:08.722Z,1016.55
2022-10-06T11:59:02.853Z,1016.51
2022-10-06T12:00:01.859Z,1016.55
2022-10-06T12:01:01.850Z,1016.51
2022-10-06T12:02:01.895Z,1016.51
2022-10-06T12:03:01.893Z,1016.53
2022-10-06T12:04:01.824Z,1016.58
2022-10-06T12:05:02.143Z,1016.50